createdAt,value
2022-09-04T00:00:13.867Z,12.80
2022-09-04T00:05:47.050Z,12.80
2022-09-04T00:11:03.885Z,13.00
2022-09-04T00:16:21.238Z,12.90
2022-09-04T00:21:42.660Z,12.90
2022-09-04T00:26:56.864Z,12.90
2022-09-04T00:32:24.959Z,12.80
2022-09-04T00:37:32.964Z,12.90
2022-09-04T00:42:53.083Z,12.90
2022-09-04T00:48:35.955Z,13.10
2022-09-04T00:53:56.166Z,13.00
2022-09-04T00:59:07.055Z,12.80
2022-09-04T01:04:17.499Z,12.80
2022-09-04T01:09:46.519Z,12.90
2022-09-04T01:14:56.562Z,13.10
2022-09-04T01:20:24.464Z,13.10
2022-09-04T01:26:07.800Z,13.00
2022-09-04T01:31:18.965Z,12.90
2022-09-04T01:36:43.454Z,13.00
2022-09-04T01:41:52.256Z,13.00
2022-09-04T01:47:06.772Z,13.10
2022-09-04T01:52:35.173Z,12.90
2022-09-04T01:57:48.819Z,13.00
2022-09-04T02:03:14.818Z,13.00
2022-09-04T02:08:41.982Z,13.10
2022-09-04T02:14:23.208Z,13.10
2022-09-04T02:19:40.304Z,12.90
2022-09-04T02:24:57.512Z,13.00
2022-09-04T02:30:10.701Z,13.00
2022-09-04T02:35:46.842Z,13.00
2022-09-04T02:40:54.829Z,13.10
2022-09-04T02:46:03.384Z,13.20
2022-09-04T02:51:23.449Z,13.10
2022-09-04T02:56:52.297Z,12.90
2022-09-04T03:02:03.587Z,13.00
2022-09-04T03:07:20.364Z,12.90
2022-09-04T03:12:49.539Z,12.80
2022-09-04T03:18:17.080Z,12.90
2022-09-04T03:23:37.534Z,12.80
2022-09-04T03:28:54.068Z,12.50
2022-09-04T03:34:08.543Z,12.60
2022-09-04T03:39:30.381Z,12.20
2022-09-04T03:44:47.903Z,12.00
2022-09-04T03:50:00.405Z,12.20
2022-09-04T03:55:29.246Z,12.00
2022-09-04T04:00:40.990Z,11.80
2022-09-04T04:06:13.624Z,11.70
2022-09-04T04:11:43.241Z,11.30
2022-09-04T04:16:56.561Z,11.40
2022-09-04T04:22:14.026Z,11.40
2022-09-04T04:27:44.690Z,11.40
2022-09-04T04:32:54.509Z,11.50
2022-09-04T04:38:28.152Z,11.40
2022-09-04T04:43:36.146Z,11.20
2022-09-04T04:48:53.008Z,11.20
2022-09-04T04:54:09.348Z,11.30
2022-09-04T04:59:40.639Z,11.40
2022-09-04T05:05:14.241Z,11.10
2022-09-04T05:10:39.093Z,11.40
2022-09-04T05:16:09.316Z,11.40
2022-09-04T05:21:15.295Z,11.60
2022-09-04T05:26:24.035Z,11.70
2022-09-04T05:31:50.911Z,11.80
2022-09-04T05:37:15.452Z,12.00
2022-09-04T05:42:26.341Z,12.20
2022-09-04T05:47:58.831Z,12.70
2022-09-04T05:53:22.008Z,12.60
2022-09-04T05:58:48.988Z,12.90
2022-09-04T06:04:19.681Z,13.50
2022-09-04T06:09:36.536Z,13.70
2022-09-04T06:14:49.046Z,14.10
2022-09-04T06:20:03.211Z,14.40
2022-09-04T06:25:34.218Z,14.30
2022-09-04T06:30:51.376Z,14.80
2022-09-04T06:36:12.072Z,15.10
2022-09-04T06:41:20.426Z,15.30
2022-09-04T06:46:40.576Z,15.50
2022-09-04T06:52:08.078Z,15.80
2022-09-04T06:57:46.078Z,15.90
2022-09-04T07:03:19.133Z,16.30
2022-09-04T07:08:47.105Z,16.70
2022-09-04T07:14:19.974Z,17.10
2022-09-04T07:19:48.679Z,17.40
2022-09-04T07:25:15.203Z,17.80
2022-09-04T07:30:22.736Z,18.10
2022-09-04T07:35:45.878Z,18.20
2022-09-04T07:40:54.189Z,18.00
2022-09-04T07:46:33.120Z,18.20
2022-09-04T07:51:54.492Z,19.00
2022-09-04T07:57:15.390Z,19.50
2022-09-04T08:02:39.412Z,19.10
2022-09-04T08:08:01.206Z,19.70
2022-09-04T08:13:31.986Z,20.20
2022-09-04T08:19:01.638Z,20.30
2022-09-04T08:24:35.703Z,20.00
2022-09-04T08:29:46.640Z,20.10
2022-09-04T08:35:04.482Z,20.80
2022-09-04T08:40:45.988Z,21.40
2022-09-04T08:46:04.875Z,21.80
2022-09-04T08:51:19.956Z,22.30
2022-09-04T08:56:42.721Z,21.50
2022-09-04T09:02:02.426Z,21.10
2022-09-04T09:07:28.640Z,21.30
2022-09-04T09:12:59.727Z,21.40
2022-09-04T09:18:19.640Z,22.20
2022-09-04T09:23:49.970Z,22.70
2022-09-04T09:29:20.549Z,22.40
2022-09-04T09:34:43.720Z,22.30
2022-09-04T09:40:09.290Z,22.30
2022-09-04T09:45:40.855Z,23.10
2022-09-04T09:51:09.307Z,22.90
2022-09-04T09:56:53.517Z,23.30
2022-09-04T10:02:23.454Z,22.50
2022-09-04T10:07:32.592Z,22.70
2022-09-04T10:13:03.111Z,23.20
2022-09-04T10:18:12.046Z,23.70
2022-09-04T10:23:41.125Z,23.60
2022-09-04T10:29:15.229Z,23.20
2022-09-04T10:34:56.735Z,23.60
2022-09-04T10:40:43.970Z,24.30
2022-09-04T10:46:10.305Z,23.50
2022-09-04T10:51:36.880Z,22.90
2022-09-04T10:57:01.804Z,22.90
2022-09-04T11:02:33.499Z,22.20
2022-09-04T11:07:49.866Z,22.30
2022-09-04T11:13:01.551Z,23.20
2022-09-04T11:18:22.762Z,23.80
2022-09-04T11:23:39.707Z,22.90
2022-09-04T11:29:04.389Z,21.60
2022-09-04T11:34:45.493Z,21.80
2022-09-04T11:40:12.388Z,21.60
2022-09-04T11:45:44.556Z,22.00
2022-09-04T11:50:57.696Z,21.80
2022-09-04T11:56:12.105Z,22.20
2022-09-04T12:01:23.998Z,22.00
2022-09-04T12:06:34.590Z,22.20
2022-09-04T12:11:49.300Z,22.60
2022-09-04T12:17:10.293Z,22.70
2022-09-04T12:22:39.721Z,22.40
2022-09-04T12:28:19.789Z,22.60
2022-09-04T12:33:36.766Z,21.90
2022-09-04T12:39:02.861Z,21.70
2022-09-04T12:44:13.695Z,21.40
2022-09-04T12:49:23.691Z,21.10
2022-09-04T12:54:56.414Z,21.10
2022-09-04T13:00:13.727Z,21.30
2022-09-04T13:05:32.478Z,21.20
2022-09-04T13:10:41.321Z,21.10
2022-09-04T13:16:01.592Z,20.90
2022-09-04T13:21:09.903Z,20.80
2022-09-04T13:26:36.560Z,20.80
2022-09-04T13:32:00.904Z,20.80
2022-09-04T13:37:14.350Z,21.50
2022-09-04T13:42:40.455Z,21.40
2022-09-04T13:47:56.582Z,21.30
2022-09-04T13:53:23.689Z,20.60
2022-09-04T13:58:38.675Z,20.50
2022-09-04T14:03:50.612Z,20.30
2022-09-04T14:09:04.874Z,20.30
2022-09-04T14:14:21.117Z,20.30
2022-09-04T14:19:42.965Z,19.90
2022-09-04T14:25:15.376Z,19.80
2022-09-04T14:30:25.258Z,19.90
2022-09-04T14:35:47.194Z,19.60
2022-09-04T14:41:01.905Z,19.40
2022-09-04T14:46:22.763Z,19.30
2022-09-04T14:51:32.424Z,19.20
2022-09-04T14:56:46.837Z,19.30
2022-09-04T15:02:08.015Z,19.40
2022-09-04T15:07:38.052Z,19.40
2022-09-04T15:12:47.783Z,19.50
2022-09-04T15:17:58.436Z,19.70
2022-09-04T15:23:16.186Z,19.80
2022-09-04T15:28:31.241Z,19.80
2022-09-04T15:33:40.932Z,19.70
2022-09-04T15:38:52.353Z,19.60
2022-09-04T15:44:23.929Z,19.60
2022-09-04T15:49:52.691Z,19.40
2022-09-04T15:55:02.645Z,19.40
2022-09-04T16:00:16.554Z,19.70
2022-09-04T16:05:31.267Z,19.40
2022-09-04T16:11:01.677Z,19.80
2022-09-04T16:16:20.189Z,19.70
2022-09-04T16:21:39.565Z,19.80
2022-09-04T16:26:48.494Z,19.60
2022-09-04T16:31:56.668Z,19.40
2022-09-04T16:37:15.293Z,19.10
2022-09-04T16:42:24.854Z,19.30
2022-09-04T16:47:40.325Z,19.00
2022-09-04T16:52:53.875Z,19.10
2022-09-04T16:58:16.912Z,19.20
2022-09-04T17:03:25.926Z,19.20
2022-09-04T17:08:43.165Z,19.20
2022-09-04T17:14:17.222Z,19.20
2022-09-04T17:19:23.631Z,19.10
2022-09-04T17:29:04.369Z,19.00
2022-09-04T17:30:04.224Z,19.00
2022-09-04T17:40:38.422Z,19.00
2022-09-04T17:41:34.337Z,18.60
2022-09-04T17:45:54.471Z,18.50
2022-09-04T17:51:03.529Z,18.60
2022-09-04T17:56:22.431Z,18.60
2022-09-04T18:01:33.842Z,18.40
2022-09-04T18:06:44.064Z,18.40
2022-09-04T18:11:59.961Z,18.40
2022-09-04T18:17:19.829Z,18.30
2022-09-04T18:22:42.693Z,18.00
2022-09-04T18:28:09.629Z,18.00
2022-09-04T18:37:17.428Z,18.00
2022-09-04T18:38:47.653Z,17.90
2022-09-04T18:50:31.761Z,17.70
2022-09-04T18:50:32.437Z,17.80
2022-09-04T18:54:33.442Z,17.50
2022-09-04T18:59:44.011Z,17.40
2022-09-04T19:05:05.116Z,17.30
2022-09-04T19:10:20.750Z,17.20
2022-09-04T19:15:36.671Z,17.10
2022-09-04T19:20:45.197Z,17.00
2022-09-04T19:25:54.881Z,16.90
2022-09-04T19:31:04.222Z,16.80
2022-09-04T19:36:41.842Z,16.60
2022-09-04T19:46:19.899Z,16.20
2022-09-04T19:47:28.482Z,16.00
2022-09-04T19:53:30.441Z,15.80
2022-09-04T19:58:06.218Z,15.70
2022-09-04T20:03:29.532Z,15.80
2022-09-04T20:08:39.533Z,15.30
2022-09-04T20:13:48.394Z,15.10
2022-09-04T20:19:27.591Z,15.10
2022-09-04T20:24:40.364Z,14.80
2022-09-04T20:29:52.392Z,15.00
2022-09-04T20:35:12.999Z,15.30
2022-09-04T20:40:40.058Z,15.30
2022-09-04T20:52:40.804Z,15.10
2022-09-04T20:53:05.977Z,14.90
2022-09-04T20:59:48.397Z,14.70
2022-09-04T21:03:21.879Z,14.70
2022-09-04T21:07:53.554Z,14.50
2022-09-04T21:13:12.833Z,14.60
2022-09-04T21:18:31.401Z,14.30
2022-09-04T21:24:12.328Z,14.00
2022-09-04T21:29:25.387Z,14.00
2022-09-04T21:34:45.587Z,14.00
2022-09-04T21:40:33.653Z,14.10
2022-09-04T21:45:45.301Z,14.30
2022-09-04T21:51:02.079Z,14.10
2022-09-04T21:59:41.181Z,14.20
2022-09-04T22:02:40.141Z,14.20
2022-09-04T22:11:55.579Z,14.30
2022-09-04T22:13:39.419Z,14.20
2022-09-04T22:18:01.242Z,14.30
2022-09-04T22:23:34.241Z,14.20
2022-09-04T22:28:42.733Z,14.00
2022-09-04T22:34:15.678Z,14.00
2022-09-04T22:39:40.173Z,13.80
2022-09-04T22:45:18.233Z,13.80
2022-09-04T22:50:36.210Z,13.90
2022-09-04T22:56:19.232Z,13.80
2022-09-04T23:01:27.023Z,13.70
2022-09-04T23:10:17.148Z,13.60
2022-09-04T23:13:49.326Z,13.50
2022-09-04T23:18:02.269Z,13.40
2022-09-04T23:26:41.904Z,13.60
2022-09-04T23:28:36.861Z,13.10
2022-09-04T23:34:18.414Z,12.90
2022-09-04T23:40:15.733Z,13.00
2022-09-04T23:46:01.102Z,12.70
2022-09-04T23:51:34.061Z,12.90
2022-09-04T23:57:26.867Z,12.70
